createdAt,value
2018-02-21T00:00:04.328Z,41.90
2018-02-21T00:02:33.394Z,39.67
2018-02-21T00:05:01.752Z,38.83
2018-02-21T00:07:30.039Z,36.80
2018-02-21T00:09:59.245Z,38.70
2018-02-21T00:12:27.506Z,38.80
2018-02-21T00:14:55.764Z,39.13
2018-02-21T00:17:24.787Z,38.80
2018-02-21T00:19:53.051Z,40.23
2018-02-21T00:22:21.300Z,36.80
2018-02-21T00:24:50.601Z,38.13
2018-02-21T00:27:19.594Z,39.37
2018-02-21T00:29:49.825Z,39.43
2018-02-21T00:32:18.847Z,39.63
2018-02-21T00:34:47.147Z,38.20
2018-02-21T00:37:15.397Z,41.60
2018-02-21T00:39:43.783Z,45.83
2018-02-21T00:42:12.129Z,47.40
2018-02-21T00:44:40.578Z,45.33
2018-02-21T00:47:08.808Z,47.60
2018-02-21T00:49:37.040Z,42.10
2018-02-21T00:52:05.357Z,43.13
2018-02-21T00:54:33.662Z,44.13
2018-02-21T00:57:01.981Z,45.67
2018-02-21T00:59:30.552Z,45.23
2018-02-21T01:01:59.589Z,45.63
2018-02-21T01:04:28.105Z,44.70
2018-02-21T01:06:56.592Z,42.60
2018-02-21T01:09:25.692Z,44.00
2018-02-21T01:11:54.010Z,43.37
2018-02-21T01:14:22.298Z,42.33
2018-02-21T01:16:50.716Z,43.20
2018-02-21T01:19:18.984Z,43.93
2018-02-21T01:21:47.236Z,40.43
2018-02-21T01:24:15.538Z,44.73
2018-02-21T01:26:43.942Z,42.80
2018-02-21T01:29:12.256Z,40.53
2018-02-21T01:31:40.685Z,44.30
2018-02-21T01:34:09.998Z,46.07
2018-02-21T01:36:38.265Z,48.43
2018-02-21T01:39:07.395Z,45.60
2018-02-21T01:41:36.418Z,45.33
2018-02-21T01:44:04.939Z,42.67
2018-02-21T01:46:33.752Z,42.80
2018-02-21T01:49:02.769Z,41.10
2018-02-21T01:51:31.757Z,42.33
2018-02-21T01:54:00.099Z,41.47
2018-02-21T01:56:28.393Z,42.83
2018-02-21T01:58:57.531Z,41.40
2018-02-21T02:01:25.793Z,43.07
2018-02-21T02:03:53.998Z,40.87
2018-02-21T02:06:22.237Z,39.90
2018-02-21T02:08:50.634Z,43.27
2018-02-21T02:11:18.837Z,45.23
2018-02-21T02:13:47.133Z,45.50
2018-02-21T02:16:16.104Z,45.87
2018-02-21T02:18:44.398Z,46.33
2018-02-21T02:21:12.678Z,46.13
2018-02-21T02:23:40.925Z,44.70
2018-02-21T02:26:10.073Z,45.07
2018-02-21T02:28:38.327Z,47.97
2018-02-21T02:31:07.337Z,47.27
2018-02-21T02:33:35.699Z,46.40
2018-02-21T02:36:03.948Z,45.67
2018-02-21T02:38:41.311Z,46.93
2018-02-21T02:41:10.116Z,45.47
2018-02-21T02:43:38.356Z,44.20
2018-02-21T02:46:06.858Z,44.43
2018-02-21T02:48:35.684Z,43.93
2018-02-21T02:51:04.201Z,43.90
2018-02-21T02:53:33.252Z,45.90
2018-02-21T02:56:01.553Z,45.97
2018-02-21T02:58:29.845Z,49.23
2018-02-21T03:00:58.316Z,47.07
2018-02-21T03:03:26.552Z,44.90
2018-02-21T03:05:54.819Z,45.73
2018-02-21T03:08:24.038Z,45.27
2018-02-21T03:10:52.488Z,47.30
2018-02-21T03:13:20.786Z,49.43
2018-02-21T03:15:49.049Z,48.80
2018-02-21T03:18:18.235Z,48.73
2018-02-21T03:20:46.449Z,47.17
2018-02-21T03:23:15.461Z,48.47
2018-02-21T03:25:44.317Z,50.07
2018-02-21T03:28:13.645Z,50.93
2018-02-21T03:30:42.015Z,52.80
2018-02-21T03:33:11.009Z,51.43
2018-02-21T03:35:39.343Z,50.30
2018-02-21T03:38:07.635Z,51.77
2018-02-21T03:40:35.930Z,50.27
2018-02-21T03:43:04.221Z,49.53
2018-02-21T03:45:32.491Z,48.83
2018-02-21T03:48:00.929Z,48.80
2018-02-21T03:50:29.183Z,47.83
2018-02-21T03:52:57.583Z,48.40
2018-02-21T03:55:25.856Z,48.07
2018-02-21T03:57:54.148Z,48.17
2018-02-21T04:00:23.200Z,49.30
2018-02-21T04:02:51.444Z,48.30
2018-02-21T04:05:19.789Z,49.57
2018-02-21T04:07:48.050Z,50.50
2018-02-21T04:10:16.298Z,51.20
2018-02-21T04:12:45.351Z,49.93
2018-02-21T04:15:13.634Z,52.73
2018-02-21T04:17:41.959Z,50.83
2018-02-21T04:20:10.378Z,50.43
2018-02-21T04:22:38.639Z,48.33
2018-02-21T04:25:07.063Z,48.33
2018-02-21T04:27:35.330Z,50.83
2018-02-21T04:30:04.404Z,48.57
2018-02-21T04:32:35.110Z,50.03
2018-02-21T04:35:05.275Z,47.67
2018-02-21T04:37:37.113Z,47.97
2018-02-21T04:40:08.218Z,48.93
2018-02-21T04:42:39.019Z,47.47
2018-02-21T04:45:12.084Z,48.27
2018-02-21T04:47:42.006Z,48.80
2018-02-21T04:50:10.506Z,47.57
2018-02-21T04:52:38.865Z,45.50
2018-02-21T04:58:12.385Z,45.20
2018-02-21T05:00:41.512Z,46.43
2018-02-21T05:03:11.313Z,45.07
2018-02-21T05:05:39.669Z,46.00
2018-02-21T05:08:08.057Z,47.47
2018-02-21T05:10:36.409Z,47.53
2018-02-21T05:13:04.700Z,44.93
2018-02-21T05:15:33.818Z,45.93
2018-02-21T05:18:02.738Z,47.13
2018-02-21T05:20:31.919Z,49.60
2018-02-21T05:23:00.292Z,48.33
2018-02-21T05:25:28.535Z,46.73
2018-02-21T05:27:56.825Z,47.33
2018-02-21T05:30:25.178Z,47.77
2018-02-21T05:32:53.583Z,46.47
2018-02-21T05:35:21.848Z,46.57
2018-02-21T05:37:50.085Z,48.80
2018-02-21T05:40:18.422Z,48.27
2018-02-21T05:42:46.669Z,49.40
2018-02-21T05:45:15.795Z,50.83
2018-02-21T05:47:44.185Z,47.23
2018-02-21T05:50:12.441Z,50.17
2018-02-21T05:52:40.667Z,47.43
2018-02-21T05:55:08.951Z,48.07
2018-02-21T05:57:38.354Z,47.50
2018-02-21T06:00:07.414Z,48.30
2018-02-21T06:02:35.750Z,45.73
2018-02-21T06:05:04.753Z,48.57
2018-02-21T06:07:33.011Z,48.13
2018-02-21T06:10:01.279Z,47.70
2018-02-21T06:12:30.456Z,46.83
2018-02-21T06:14:58.722Z,46.60
2018-02-21T06:17:27.206Z,46.63
2018-02-21T06:19:55.519Z,47.50
2018-02-21T06:22:23.824Z,45.73
2018-02-21T06:24:52.130Z,47.57
2018-02-21T06:27:20.600Z,48.70
2018-02-21T06:29:48.834Z,49.07
2018-02-21T06:32:17.870Z,46.80
2018-02-21T06:34:52.320Z,47.53
2018-02-21T06:37:20.905Z,45.87
2018-02-21T06:39:49.222Z,48.47
2018-02-21T06:42:17.665Z,44.87
2018-02-21T06:44:46.456Z,44.73
2018-02-21T06:47:14.806Z,45.97
2018-02-21T06:49:43.307Z,45.40
2018-02-21T06:52:11.800Z,41.53
2018-02-21T06:54:40.137Z,45.97
2018-02-21T06:57:08.545Z,45.83
2018-02-21T06:59:37.977Z,45.67
2018-02-21T07:02:06.316Z,45.33
2018-02-21T07:04:34.617Z,45.73
2018-02-21T07:07:03.681Z,66.70
2018-02-21T07:09:32.099Z,52.60
2018-02-21T07:12:00.372Z,47.07
2018-02-21T07:14:30.184Z,44.63
2018-02-21T07:16:58.546Z,46.13
2018-02-21T07:19:26.934Z,47.13
2018-02-21T07:21:55.429Z,47.63
2018-02-21T07:24:23.730Z,49.00
2018-02-21T07:26:52.769Z,48.67
2018-02-21T07:29:21.034Z,48.80
2018-02-21T07:31:49.443Z,44.57
2018-02-21T07:34:17.705Z,46.30
2018-02-21T07:36:45.951Z,47.13
2018-02-21T07:39:14.247Z,45.77
2018-02-21T07:41:42.643Z,47.73
2018-02-21T07:44:10.954Z,48.20
2018-02-21T07:46:39.307Z,45.50
2018-02-21T07:49:07.568Z,46.97
2018-02-21T07:51:35.861Z,48.63
2018-02-21T07:54:04.915Z,48.30
2018-02-21T07:56:34.234Z,45.87
2018-02-21T07:59:02.495Z,46.80
2018-02-21T08:01:30.916Z,44.17
2018-02-21T08:03:59.206Z,44.50
2018-02-21T08:06:29.719Z,47.03
2018-02-21T08:08:58.007Z,44.53
2018-02-21T08:11:26.385Z,43.97
2018-02-21T08:13:54.672Z,44.80
2018-02-21T08:16:23.140Z,45.33
2018-02-21T08:18:51.519Z,46.07
2018-02-21T08:21:19.883Z,47.50
2018-02-21T08:23:48.267Z,44.17
2018-02-21T08:26:16.528Z,45.93
2018-02-21T08:28:44.923Z,45.20
2018-02-21T08:31:13.409Z,47.57
2018-02-21T08:33:41.679Z,45.60
2018-02-21T08:36:10.170Z,46.53
2018-02-21T08:38:38.630Z,46.30
2018-02-21T08:41:07.028Z,44.53
2018-02-21T08:43:35.277Z,45.60
2018-02-21T08:46:03.558Z,45.70
2018-02-21T08:48:32.382Z,47.17
2018-02-21T08:51:00.657Z,44.03
2018-02-21T08:53:28.952Z,45.30
2018-02-21T08:55:57.402Z,45.43
2018-02-21T08:58:25.797Z,44.23
2018-02-21T09:00:54.153Z,44.83
2018-02-21T09:03:26.441Z,44.33
2018-02-21T09:05:54.719Z,45.67
2018-02-21T09:08:22.999Z,45.60
2018-02-21T09:10:51.440Z,44.10
2018-02-21T09:13:19.784Z,44.90
2018-02-21T09:15:48.884Z,44.57
2018-02-21T09:18:17.227Z,46.40
2018-02-21T09:20:45.639Z,46.10
2018-02-21T09:23:14.694Z,45.03
2018-02-21T09:25:42.943Z,44.57
2018-02-21T09:28:11.946Z,44.33
2018-02-21T09:30:40.235Z,43.30
2018-02-21T09:33:08.835Z,45.07
2018-02-21T09:35:37.370Z,45.07
2018-02-21T09:38:05.699Z,45.93
2018-02-21T09:40:34.112Z,46.07
2018-02-21T09:43:03.491Z,46.60
2018-02-21T09:45:32.523Z,45.63
2018-02-21T09:48:00.767Z,42.63
2018-02-21T09:50:29.063Z,44.33
2018-02-21T09:52:58.255Z,43.00
2018-02-21T09:55:27.309Z,43.67
2018-02-21T09:57:56.054Z,43.93
2018-02-21T10:00:24.410Z,43.63
2018-02-21T10:02:52.669Z,43.70
2018-02-21T10:05:20.945Z,44.10
2018-02-21T10:07:50.147Z,42.80
2018-02-21T10:10:18.418Z,42.00
2018-02-21T10:12:46.900Z,43.73
2018-02-21T10:15:15.294Z,43.93
2018-02-21T10:17:43.566Z,43.87
2018-02-21T10:20:12.559Z,43.70
2018-02-21T10:22:40.952Z,43.43
2018-02-21T10:25:10.155Z,43.23
2018-02-21T10:27:38.611Z,43.47
2018-02-21T10:30:07.835Z,41.77
2018-02-21T10:32:36.422Z,42.23
2018-02-21T10:35:04.944Z,43.83
2018-02-21T10:37:34.374Z,43.87
2018-02-21T10:40:02.634Z,40.57
2018-02-21T10:42:31.647Z,42.63
2018-02-21T10:44:59.931Z,43.20
2018-02-21T10:47:28.313Z,41.37
2018-02-21T10:49:57.033Z,40.13
2018-02-21T10:52:25.306Z,43.13
2018-02-21T10:54:55.157Z,42.20
2018-02-21T10:57:23.593Z,43.90
2018-02-21T10:59:51.982Z,42.87
2018-02-21T11:02:21.253Z,41.87
2018-02-21T11:04:49.560Z,43.93
2018-02-21T11:07:18.656Z,44.20
2018-02-21T11:09:46.917Z,43.03
2018-02-21T11:12:15.195Z,42.67
2018-02-21T11:14:44.278Z,39.73
2018-02-21T11:17:12.665Z,42.57
2018-02-21T11:19:41.079Z,42.80
2018-02-21T11:22:09.464Z,41.80
2018-02-21T11:24:37.713Z,42.00
2018-02-21T11:27:06.017Z,42.43
2018-02-21T11:29:35.296Z,41.50
2018-02-21T11:32:04.593Z,42.77
2018-02-21T11:34:32.951Z,41.50
2018-02-21T11:37:01.243Z,44.80
2018-02-21T11:39:29.722Z,44.57
2018-02-21T11:41:58.116Z,40.43
2018-02-21T11:44:27.322Z,43.47
2018-02-21T11:46:55.859Z,43.33
2018-02-21T11:49:24.118Z,44.50
2018-02-21T11:51:53.108Z,44.93
2018-02-21T11:54:22.147Z,41.77
2018-02-21T11:56:50.559Z,39.53
2018-02-21T11:59:20.368Z,41.37
2018-02-21T12:01:48.600Z,42.40
2018-02-21T12:04:16.904Z,42.57
2018-02-21T12:06:45.272Z,40.40
2018-02-21T12:09:13.538Z,41.07
2018-02-21T12:11:41.867Z,38.50
2018-02-21T12:14:10.936Z,38.67
2018-02-21T12:16:41.140Z,39.07
2018-02-21T12:19:09.589Z,38.40
2018-02-21T12:21:38.430Z,37.67
2018-02-21T12:24:06.721Z,39.07
2018-02-21T12:26:35.943Z,39.17
2018-02-21T12:29:04.919Z,39.27
2018-02-21T12:31:33.209Z,39.23
2018-02-21T12:34:03.079Z,38.73
2018-02-21T12:36:32.015Z,38.80
2018-02-21T12:39:06.203Z,40.97
2018-02-21T12:41:40.368Z,40.60
2018-02-21T12:44:08.651Z,40.20
2018-02-21T12:46:38.016Z,39.10
2018-02-21T12:49:07.130Z,39.87
2018-02-21T12:51:35.432Z,40.47
2018-02-21T12:54:03.960Z,41.97
2018-02-21T12:56:32.368Z,40.23
2018-02-21T12:59:01.433Z,40.43
2018-02-21T13:01:29.841Z,39.33
2018-02-21T13:03:58.085Z,41.30
2018-02-21T13:06:26.447Z,40.77
2018-02-21T13:08:54.718Z,40.93
2018-02-21T13:11:23.027Z,41.07
2018-02-21T13:13:52.045Z,39.47
2018-02-21T13:16:20.383Z,40.60
2018-02-21T13:18:48.764Z,40.33
2018-02-21T13:21:17.129Z,39.77
2018-02-21T13:23:45.417Z,40.70
2018-02-21T13:26:13.622Z,38.33
2018-02-21T13:28:42.174Z,38.13
2018-02-21T13:31:11.275Z,38.03
2018-02-21T13:33:39.574Z,37.10
2018-02-21T13:36:07.914Z,37.17
2018-02-21T13:38:36.264Z,36.43
2018-02-21T13:41:04.793Z,38.57
2018-02-21T13:43:33.044Z,38.23
2018-02-21T13:46:01.263Z,36.67
2018-02-21T13:48:29.514Z,38.80
2018-02-21T13:50:57.906Z,37.57
2018-02-21T13:53:26.157Z,33.57
2018-02-21T13:55:54.380Z,34.37
2018-02-21T13:58:22.722Z,37.67
2018-02-21T14:00:51.075Z,34.50
2018-02-21T14:03:19.490Z,34.77
2018-02-21T14:05:47.747Z,34.57
2018-02-21T14:08:15.996Z,34.40
2018-02-21T14:10:44.393Z,35.10
2018-02-21T14:13:13.388Z,34.50
2018-02-21T14:15:42.652Z,33.37
2018-02-21T14:18:10.997Z,33.60
2018-02-21T14:20:39.404Z,33.73
2018-02-21T14:23:08.783Z,34.37
2018-02-21T14:25:37.625Z,33.73
2018-02-21T14:28:06.637Z,34.13
2018-02-21T14:30:34.961Z,31.97
2018-02-21T14:33:03.213Z,31.77
2018-02-21T14:35:31.805Z,35.10
2018-02-21T14:38:00.315Z,35.07
2018-02-21T14:40:28.604Z,37.17
2018-02-21T14:42:57.777Z,35.07
2018-02-21T14:45:26.036Z,35.47
2018-02-21T14:47:54.265Z,35.43
2018-02-21T14:50:23.313Z,36.30
2018-02-21T14:52:51.596Z,34.90
2018-02-21T14:55:19.857Z,33.20
2018-02-21T14:57:48.348Z,32.13
2018-02-21T15:00:17.436Z,31.63
2018-02-21T15:02:45.769Z,32.03
2018-02-21T15:05:14.790Z,32.40
2018-02-21T15:07:43.798Z,32.87
2018-02-21T15:10:12.199Z,32.17
2018-02-21T15:12:41.497Z,32.53
2018-02-21T15:15:09.761Z,32.47
2018-02-21T15:17:38.256Z,32.07
2018-02-21T15:20:06.535Z,31.27
2018-02-21T15:22:34.829Z,29.63
2018-02-21T15:25:03.306Z,31.83
2018-02-21T15:27:31.578Z,33.27
2018-02-21T15:29:59.948Z,32.53
2018-02-21T15:32:29.553Z,33.40
2018-02-21T15:34:57.936Z,33.27
2018-02-21T15:37:26.182Z,32.53
2018-02-21T15:39:55.541Z,33.20
2018-02-21T15:42:23.790Z,33.63
2018-02-21T15:44:52.025Z,33.77
2018-02-21T15:47:20.352Z,31.97
2018-02-21T15:49:48.935Z,32.70
2018-02-21T15:52:17.653Z,32.63
2018-02-21T15:54:46.137Z,33.73
2018-02-21T15:57:15.543Z,33.80
2018-02-21T15:59:44.101Z,34.43
2018-02-21T16:02:13.494Z,34.13
2018-02-21T16:04:42.596Z,34.43
2018-02-21T16:07:10.838Z,35.03
2018-02-21T16:09:39.263Z,35.33
2018-02-21T16:12:07.534Z,34.83
2018-02-21T16:14:36.633Z,35.90
2018-02-21T16:17:04.889Z,35.93
2018-02-21T16:19:33.357Z,37.03
2018-02-21T16:22:01.981Z,36.47
2018-02-21T16:24:31.769Z,35.83
2018-02-21T16:27:02.430Z,36.50
2018-02-21T16:29:32.604Z,35.87
2018-02-21T16:32:02.785Z,35.87
2018-02-21T16:34:34.343Z,36.43
2018-02-21T16:37:06.827Z,36.27
2018-02-21T16:39:38.576Z,37.17
2018-02-21T16:42:07.632Z,36.70
2018-02-21T16:44:38.446Z,38.10
2018-02-21T16:47:08.095Z,37.47
2018-02-21T16:49:37.197Z,39.10
2018-02-21T16:52:06.839Z,37.13
2018-02-21T16:54:35.659Z,38.30
2018-02-21T16:57:04.792Z,36.53
2018-02-21T16:59:33.986Z,38.07
2018-02-21T17:02:02.358Z,38.23
2018-02-21T17:04:30.731Z,38.90
2018-02-21T17:06:59.334Z,38.83
2018-02-21T17:09:27.610Z,39.00
2018-02-21T17:11:56.901Z,40.00
2018-02-21T17:14:25.395Z,41.20
2018-02-21T17:16:53.640Z,39.80
2018-02-21T17:19:21.909Z,39.83
2018-02-21T17:21:50.882Z,40.60
2018-02-21T17:24:19.233Z,40.97
2018-02-21T17:26:47.593Z,41.00
2018-02-21T17:29:15.984Z,42.33
2018-02-21T17:31:44.253Z,43.43
2018-02-21T17:34:13.191Z,42.87
2018-02-21T17:36:42.376Z,42.83
2018-02-21T17:39:11.507Z,43.87
2018-02-21T17:41:40.648Z,44.93
2018-02-21T17:44:08.941Z,44.43
2018-02-21T17:46:37.957Z,43.03
2018-02-21T17:49:06.519Z,45.20
2018-02-21T17:51:34.829Z,45.43
2018-02-21T17:54:04.807Z,44.70
2018-02-21T17:56:33.041Z,45.07
2018-02-21T17:59:01.455Z,45.50
2018-02-21T18:01:29.714Z,46.27
2018-02-21T18:03:57.947Z,45.70
2018-02-21T18:06:27.128Z,44.40
2018-02-21T18:08:55.353Z,46.83
2018-02-21T18:11:23.915Z,45.27
2018-02-21T18:13:52.274Z,45.07
2018-02-21T18:16:20.525Z,46.57
2018-02-21T18:18:48.773Z,46.13
2018-02-21T18:21:22.717Z,45.90
2018-02-21T18:23:50.974Z,45.60
2018-02-21T18:26:19.229Z,46.33
2018-02-21T18:28:47.557Z,47.27
2018-02-21T18:31:15.879Z,49.07
2018-02-21T18:33:44.205Z,47.30
2018-02-21T18:36:12.640Z,50.10
2018-02-21T18:38:40.912Z,47.77
2018-02-21T18:41:09.912Z,48.70
2018-02-21T18:43:38.226Z,49.33
2018-02-21T18:46:06.481Z,50.03
2018-02-21T18:48:35.456Z,49.80
2018-02-21T18:51:03.706Z,51.80
2018-02-21T18:53:31.964Z,50.53
2018-02-21T18:56:00.172Z,49.80
2018-02-21T18:58:29.434Z,49.97
2018-02-21T19:00:57.800Z,50.10
2018-02-21T19:03:26.141Z,51.70
2018-02-21T19:05:55.299Z,53.67
2018-02-21T19:08:23.527Z,53.53
2018-02-21T19:10:51.836Z,51.53
2018-02-21T19:13:20.194Z,52.27
2018-02-21T19:15:48.491Z,52.40
2018-02-21T19:18:17.275Z,51.40
2018-02-21T19:20:45.659Z,51.43
2018-02-21T19:23:13.905Z,51.13
2018-02-21T19:25:42.182Z,49.30
2018-02-21T19:28:10.427Z,51.87
2018-02-21T19:30:40.065Z,51.77
2018-02-21T19:33:10.123Z,53.27
2018-02-21T19:35:38.341Z,51.57
2018-02-21T19:38:07.491Z,50.50
2018-02-21T19:40:35.824Z,48.87
2018-02-21T19:43:04.940Z,53.10
2018-02-21T19:45:33.151Z,49.13
2018-02-21T19:48:01.383Z,52.20
2018-02-21T19:50:29.899Z,46.53
2018-02-21T19:52:59.051Z,44.70
2018-02-21T19:55:28.055Z,43.90
2018-02-21T19:57:57.203Z,40.27
2018-02-21T20:00:26.332Z,39.43
2018-02-21T20:02:55.694Z,35.73
2018-02-21T20:05:23.985Z,37.17
2018-02-21T20:07:52.224Z,34.17
2018-02-21T20:10:20.442Z,32.17
2018-02-21T20:12:48.679Z,35.37
2018-02-21T20:15:16.998Z,33.00
2018-02-21T20:17:45.274Z,33.60
2018-02-21T20:20:16.243Z,33.10
2018-02-21T20:22:45.407Z,33.47
2018-02-21T20:25:13.808Z,34.60
2018-02-21T20:27:42.108Z,31.90
2018-02-21T20:30:11.271Z,31.13
2018-02-21T20:32:40.457Z,36.70
2018-02-21T20:35:09.728Z,34.73
2018-02-21T20:37:38.610Z,36.70
2018-02-21T20:40:07.682Z,32.03
2018-02-21T20:42:36.687Z,34.37
2018-02-21T20:45:05.102Z,33.37
2018-02-21T20:47:33.389Z,33.67
2018-02-21T20:50:01.671Z,32.87
2018-02-21T20:52:30.035Z,32.47
2018-02-21T20:54:58.295Z,35.83
2018-02-21T20:57:26.526Z,34.53
2018-02-21T20:59:55.117Z,35.27
2018-02-21T21:02:24.905Z,34.57
2018-02-21T21:04:53.158Z,36.10
2018-02-21T21:07:21.491Z,35.57
2018-02-21T21:09:50.563Z,34.70
2018-02-21T21:12:19.649Z,33.63
2018-02-21T21:14:47.898Z,34.50
2018-02-21T21:17:16.125Z,34.63
2018-02-21T21:19:46.752Z,35.63
2018-02-21T21:22:16.144Z,34.10
2018-02-21T21:24:44.508Z,37.37
2018-02-21T21:27:12.773Z,36.90
2018-02-21T21:29:41.066Z,35.83
2018-02-21T21:32:09.311Z,34.77
2018-02-21T21:34:37.823Z,34.80
2018-02-21T21:37:06.347Z,34.50
2018-02-21T21:39:35.536Z,33.83
2018-02-21T21:42:04.602Z,34.17
2018-02-21T21:44:32.978Z,34.53
2018-02-21T21:47:01.919Z,35.00
2018-02-21T21:49:32.869Z,34.83
2018-02-21T21:51:59.346Z,33.40
2018-02-21T21:54:27.604Z,34.40
2018-02-21T21:56:55.897Z,34.30
2018-02-21T21:59:24.141Z,34.63
2018-02-21T22:01:52.680Z,34.77
2018-02-21T22:04:20.900Z,35.07
2018-02-21T22:06:49.166Z,35.00
2018-02-21T22:09:18.948Z,32.97
2018-02-21T22:11:48.736Z,35.60
2018-02-21T22:14:17.124Z,34.63
2018-02-21T22:16:45.422Z,34.70
2018-02-21T22:19:13.893Z,34.27
2018-02-21T22:21:42.365Z,34.00
2018-02-21T22:24:10.785Z,34.90
2018-02-21T22:26:39.076Z,33.37
2018-02-21T22:29:08.073Z,35.20
2018-02-21T22:31:36.728Z,35.67
2018-02-21T22:34:06.096Z,33.70
2018-02-21T22:36:35.079Z,34.47
2018-02-21T22:39:03.389Z,34.53
2018-02-21T22:41:31.650Z,33.43
2018-02-21T22:43:59.882Z,33.60
2018-02-21T22:46:29.028Z,35.10
2018-02-21T22:48:57.295Z,33.70
2018-02-21T22:51:25.907Z,34.03
2018-02-21T22:53:55.090Z,35.43
2018-02-21T22:56:23.668Z,34.13
2018-02-21T22:58:52.156Z,35.47
2018-02-21T23:01:20.391Z,34.37
2018-02-21T23:03:49.896Z,34.40
2018-02-21T23:06:18.151Z,35.43
2018-02-21T23:08:47.157Z,35.33
2018-02-21T23:11:16.174Z,36.10
2018-02-21T23:13:45.667Z,35.37
2018-02-21T23:16:14.055Z,36.40
2018-02-21T23:18:43.159Z,36.57
2018-02-21T23:21:11.560Z,35.00
2018-02-21T23:23:40.249Z,33.93
2018-02-21T23:26:09.328Z,35.30
2018-02-21T23:28:37.557Z,33.37
2018-02-21T23:31:06.618Z,35.37
2018-02-21T23:33:35.254Z,35.77
2018-02-21T23:36:04.369Z,33.40
2018-02-21T23:38:32.619Z,35.40
2018-02-21T23:41:00.954Z,35.30
2018-02-21T23:43:29.243Z,32.57
2018-02-21T23:45:57.611Z,32.23
2018-02-21T23:48:26.226Z,34.60
2018-02-21T23:50:54.503Z,33.97
2018-02-21T23:53:23.653Z,33.43
2018-02-21T23:55:52.053Z,35.30
2018-02-21T23:58:20.331Z,33.80
